createdAt,value
2018-06-27T00:03:32.602Z,18.00
2018-06-27T00:10:38.908Z,18.00
2018-06-27T00:17:45.170Z,17.90
2018-06-27T00:21:18.476Z,17.90
2018-06-27T00:24:51.783Z,17.80
2018-06-27T00:28:25.075Z,17.70
2018-06-27T00:31:59.242Z,17.60
2018-06-27T00:35:32.488Z,17.60
2018-06-27T00:39:08.153Z,17.60
2018-06-27T00:42:41.542Z,17.60
2018-06-27T00:46:14.846Z,17.50
2018-06-27T00:49:48.170Z,17.50
2018-06-27T00:53:25.665Z,17.50
2018-06-27T00:56:58.953Z,17.50
2018-06-27T01:00:32.239Z,17.50
2018-06-27T01:04:05.575Z,17.40
2018-06-27T01:07:38.849Z,17.40
2018-06-27T01:11:12.154Z,17.40
2018-06-27T01:14:45.481Z,17.40
2018-06-27T01:18:18.776Z,17.40
2018-06-27T01:21:52.032Z,17.30
2018-06-27T01:25:25.371Z,17.30
2018-06-27T01:28:58.693Z,17.40
2018-06-27T01:32:31.945Z,17.30
2018-06-27T01:36:05.382Z,17.30
2018-06-27T01:39:38.701Z,17.30
2018-06-27T01:43:11.968Z,17.20
2018-06-27T01:46:45.348Z,17.00
2018-06-27T01:50:18.601Z,17.00
2018-06-27T01:53:51.871Z,16.90
2018-06-27T01:57:25.153Z,16.80
2018-06-27T02:00:58.455Z,16.80
2018-06-27T02:04:31.733Z,16.80
2018-06-27T02:08:05.221Z,16.80
2018-06-27T02:11:38.522Z,16.90
2018-06-27T02:15:11.783Z,16.90
2018-06-27T02:18:45.081Z,16.80
2018-06-27T02:22:18.349Z,16.80
2018-06-27T02:25:51.631Z,16.90
2018-06-27T02:29:24.891Z,17.00
2018-06-27T02:32:58.148Z,17.00
2018-06-27T02:36:31.391Z,17.10
2018-06-27T02:40:04.764Z,17.20
2018-06-27T02:43:38.366Z,17.10
2018-06-27T02:47:11.672Z,17.10
2018-06-27T02:50:44.944Z,17.10
2018-06-27T02:54:18.230Z,17.10
2018-06-27T02:57:51.522Z,17.10
2018-06-27T03:04:57.788Z,17.30
2018-06-27T03:08:31.052Z,17.30
2018-06-27T03:12:04.344Z,17.30
2018-06-27T03:15:37.667Z,17.30
2018-06-27T03:19:10.930Z,17.40
2018-06-27T03:22:44.665Z,17.40
2018-06-27T03:26:17.895Z,17.40
2018-06-27T03:29:51.216Z,17.30
2018-06-27T03:33:24.492Z,17.40
2018-06-27T03:36:57.833Z,17.40
2018-06-27T03:40:31.165Z,17.30
2018-06-27T03:44:04.493Z,17.30
2018-06-27T03:47:37.725Z,17.30
2018-06-27T03:51:11.054Z,17.30
2018-06-27T03:54:44.362Z,17.40
2018-06-27T03:58:18.631Z,17.40
2018-06-27T04:01:51.911Z,17.50
2018-06-27T04:05:25.165Z,17.60
2018-06-27T04:08:58.451Z,17.70
2018-06-27T04:12:31.758Z,17.70
2018-06-27T04:16:05.103Z,17.70
2018-06-27T04:19:38.414Z,17.70
2018-06-27T04:23:11.692Z,17.60
2018-06-27T04:26:44.957Z,17.60
2018-06-27T04:30:18.255Z,17.70
2018-06-27T04:33:51.727Z,17.70
2018-06-27T04:37:25.097Z,17.80
2018-06-27T04:40:58.358Z,17.80
2018-06-27T04:44:31.617Z,17.80
2018-06-27T04:48:05.034Z,17.80
2018-06-27T04:51:38.321Z,17.90
2018-06-27T04:55:11.712Z,17.90
2018-06-27T04:58:45.158Z,18.00
2018-06-27T05:02:18.537Z,18.10
2018-06-27T05:05:51.892Z,18.20
2018-06-27T05:09:25.146Z,18.20
2018-06-27T05:12:58.592Z,18.30
2018-06-27T05:16:31.863Z,18.50
2018-06-27T05:20:05.156Z,18.50
2018-06-27T05:23:38.432Z,18.60
2018-06-27T05:27:11.799Z,18.70
2018-06-27T05:30:45.032Z,18.90
2018-06-27T05:34:18.354Z,19.00
2018-06-27T05:37:51.609Z,19.10
2018-06-27T05:41:24.852Z,19.10
2018-06-27T05:44:58.180Z,19.20
2018-06-27T05:48:31.467Z,19.20
2018-06-27T05:52:04.833Z,19.30
2018-06-27T05:55:38.493Z,19.30
2018-06-27T05:59:11.819Z,19.30
2018-06-27T06:02:45.164Z,19.30
2018-06-27T06:06:18.854Z,19.30
2018-06-27T06:09:52.190Z,19.30
2018-06-27T06:13:25.460Z,19.40
2018-06-27T06:16:58.824Z,19.40
2018-06-27T06:20:32.161Z,19.50
2018-06-27T06:24:05.959Z,19.60
2018-06-27T06:27:39.520Z,19.60
2018-06-27T06:31:12.906Z,19.70
2018-06-27T06:34:46.428Z,19.80
2018-06-27T06:38:19.707Z,19.90
2018-06-27T06:41:53.217Z,20.00
2018-06-27T06:45:26.740Z,20.10
2018-06-27T06:49:00.137Z,20.30
2018-06-27T06:52:33.837Z,20.40
2018-06-27T06:56:07.266Z,20.50
2018-06-27T06:59:40.624Z,20.60
2018-06-27T07:03:13.983Z,20.70
2018-06-27T07:06:47.665Z,20.80
2018-06-27T07:10:21.065Z,20.90
2018-06-27T07:13:54.478Z,21.00
2018-06-27T07:17:27.767Z,21.10
2018-06-27T07:21:01.091Z,21.20
2018-06-27T07:24:34.672Z,21.30
2018-06-27T07:28:08.053Z,21.30
2018-06-27T07:31:41.384Z,21.40
2018-06-27T07:35:14.772Z,21.40
2018-06-27T07:38:48.108Z,21.50
2018-06-27T07:42:21.458Z,21.50
2018-06-27T07:45:54.837Z,21.30
2018-06-27T07:49:28.212Z,21.40
2018-06-27T07:53:01.630Z,21.50
2018-06-27T07:56:34.917Z,21.50
2018-06-27T08:00:09.523Z,21.60
2018-06-27T08:03:42.909Z,21.70
2018-06-27T08:07:16.316Z,21.70
2018-06-27T08:10:49.829Z,21.80
2018-06-27T08:14:23.189Z,21.80
2018-06-27T08:17:56.512Z,21.90
2018-06-27T08:21:30.517Z,22.00
2018-06-27T08:25:03.895Z,22.00
2018-06-27T08:28:37.224Z,22.20
2018-06-27T08:32:10.578Z,22.30
2018-06-27T08:35:44.063Z,22.50
2018-06-27T08:39:17.412Z,22.70
2018-06-27T08:42:50.961Z,22.70
2018-06-27T08:46:24.344Z,22.60
2018-06-27T08:49:57.816Z,22.50
2018-06-27T08:53:31.018Z,22.50
2018-06-27T08:57:04.680Z,22.40
2018-06-27T09:00:38.576Z,22.40
2018-06-27T09:04:12.219Z,22.50
2018-06-27T09:07:45.544Z,22.70
2018-06-27T09:11:18.960Z,22.80
2018-06-27T09:14:53.159Z,22.90
2018-06-27T09:18:26.424Z,23.00
2018-06-27T09:21:59.740Z,23.00
2018-06-27T09:25:32.973Z,23.20
2018-06-27T09:29:06.216Z,23.40
2018-06-27T09:32:39.884Z,23.70
2018-06-27T09:36:13.412Z,23.80
2018-06-27T09:43:19.764Z,24.00
2018-06-27T09:46:53.165Z,24.00
2018-06-27T09:50:26.970Z,24.00
2018-06-27T09:54:00.310Z,23.90
2018-06-27T09:57:33.715Z,24.00
2018-06-27T10:01:07.106Z,24.10
2018-06-27T10:04:41.826Z,24.20
2018-06-27T10:08:15.260Z,24.20
2018-06-27T10:11:48.633Z,24.30
2018-06-27T10:15:22.193Z,24.50
2018-06-27T10:18:55.650Z,24.60
2018-06-27T10:22:29.426Z,24.70
2018-06-27T10:26:02.588Z,24.70
2018-06-27T10:29:37.402Z,24.80
2018-06-27T10:33:11.449Z,24.80
2018-06-27T10:40:17.872Z,24.90
2018-06-27T10:43:51.438Z,25.00
2018-06-27T10:47:24.795Z,25.10
2018-06-27T10:50:58.192Z,25.20
2018-06-27T10:54:31.621Z,25.40
2018-06-27T10:58:05.045Z,25.50
2018-06-27T11:01:38.373Z,25.30
2018-06-27T11:05:12.017Z,25.20
2018-06-27T11:12:18.881Z,25.10
2018-06-27T11:15:52.178Z,25.00
2018-06-27T11:19:25.429Z,25.10
2018-06-27T11:22:58.668Z,25.30
2018-06-27T11:26:31.913Z,25.40
2018-06-27T11:30:05.188Z,25.30
2018-06-27T11:33:38.438Z,25.20
2018-06-27T11:37:11.681Z,25.20
2018-06-27T11:40:44.917Z,25.10
2018-06-27T11:44:18.421Z,25.10
2018-06-27T11:47:51.648Z,25.10
2018-06-27T11:51:24.913Z,25.20
2018-06-27T11:55:03.460Z,25.30
2018-06-27T11:58:36.716Z,25.30
2018-06-27T12:02:09.963Z,25.10
2018-06-27T12:05:43.234Z,24.90
2018-06-27T12:09:16.468Z,25.00
2018-06-27T12:12:49.713Z,25.30
2018-06-27T12:16:22.997Z,25.60
2018-06-27T12:19:56.240Z,25.90
2018-06-27T12:23:29.496Z,25.80
2018-06-27T12:27:02.873Z,25.70
2018-06-27T12:30:36.114Z,25.60
2018-06-27T12:34:09.380Z,25.50
2018-06-27T12:37:42.642Z,25.40
2018-06-27T12:41:16.013Z,25.30
2018-06-27T12:44:49.250Z,25.20
2018-06-27T12:48:22.596Z,25.10
2018-06-27T12:51:55.864Z,25.30
2018-06-27T12:55:29.198Z,25.40
2018-06-27T12:59:02.523Z,25.50
2018-06-27T13:02:35.830Z,25.60
2018-06-27T13:06:09.092Z,25.40
2018-06-27T13:09:42.423Z,25.40
2018-06-27T13:13:15.685Z,25.30
2018-06-27T13:16:48.921Z,25.20
2018-06-27T13:20:22.142Z,25.30
2018-06-27T13:23:55.487Z,25.40
2018-06-27T13:27:28.803Z,25.40
2018-06-27T13:31:02.131Z,25.40
2018-06-27T13:34:35.397Z,25.60
2018-06-27T13:38:08.663Z,25.70
2018-06-27T13:41:41.911Z,26.00
2018-06-27T13:45:15.176Z,26.10
2018-06-27T13:48:48.420Z,26.40
2018-06-27T13:52:21.689Z,26.60
2018-06-27T13:55:54.951Z,26.60
2018-06-27T13:59:28.203Z,26.40
2018-06-27T14:03:01.464Z,26.30
2018-06-27T14:06:34.699Z,26.60
2018-06-27T14:10:07.960Z,26.90
2018-06-27T14:13:41.209Z,27.00
2018-06-27T14:17:14.488Z,27.00
2018-06-27T14:20:47.759Z,27.10
2018-06-27T14:24:21.077Z,26.90
2018-06-27T14:31:27.328Z,26.90
2018-06-27T14:42:06.663Z,27.20
2018-06-27T14:45:39.889Z,27.20
2018-06-27T14:49:13.183Z,27.10
2018-06-27T14:52:46.487Z,27.20
2018-06-27T14:56:19.771Z,27.60
2018-06-27T14:59:53.433Z,27.80
2018-06-27T15:03:27.003Z,27.90
2018-06-27T15:07:00.517Z,28.00
2018-06-27T15:10:34.669Z,28.10
2018-06-27T15:14:07.951Z,28.00
2018-06-27T15:17:41.220Z,27.90
2018-06-27T15:21:14.452Z,28.00
2018-06-27T15:24:47.694Z,27.80
2018-06-27T15:28:20.920Z,27.40
2018-06-27T15:31:54.160Z,27.10
2018-06-27T15:35:27.411Z,26.90
2018-06-27T15:39:00.660Z,26.80
2018-06-27T15:42:33.898Z,27.00
2018-06-27T15:46:07.128Z,27.40
2018-06-27T15:49:40.376Z,27.90
2018-06-27T15:53:13.628Z,28.30
2018-06-27T15:56:46.936Z,28.70
2018-06-27T16:00:20.168Z,29.00
2018-06-27T16:07:26.432Z,29.20
2018-06-27T16:10:59.709Z,29.20
2018-06-27T16:14:32.972Z,29.30
2018-06-27T16:18:06.308Z,29.10
2018-06-27T16:21:39.550Z,29.10
2018-06-27T16:25:12.802Z,29.00
2018-06-27T16:28:46.116Z,28.90
2018-06-27T16:32:19.361Z,28.50
2018-06-27T16:39:25.640Z,27.60
2018-06-27T16:42:58.932Z,27.20
2018-06-27T16:46:32.161Z,27.00
2018-06-27T16:53:38.632Z,26.90
2018-06-27T16:57:11.897Z,26.80
2018-06-27T17:00:45.157Z,26.50
2018-06-27T17:04:18.398Z,25.30
2018-06-27T17:07:51.623Z,24.50
2018-06-27T17:11:24.836Z,24.00
2018-06-27T17:14:58.088Z,23.80
2018-06-27T17:18:31.329Z,23.60
2018-06-27T17:22:04.557Z,23.50
2018-06-27T17:25:37.808Z,23.40
2018-06-27T17:29:11.039Z,23.30
2018-06-27T17:32:44.349Z,23.20
2018-06-27T17:36:17.583Z,23.00
2018-06-27T17:39:50.842Z,22.90
2018-06-27T17:43:24.110Z,22.70
2018-06-27T17:46:57.341Z,22.60
2018-06-27T17:50:30.585Z,22.50
2018-06-27T17:54:04.584Z,22.40
2018-06-27T18:01:10.804Z,22.20
2018-06-27T18:04:44.069Z,22.20
2018-06-27T18:08:17.318Z,22.10
2018-06-27T18:11:50.574Z,22.10
2018-06-27T18:15:23.819Z,22.10
2018-06-27T18:18:57.928Z,22.10
2018-06-27T18:22:31.203Z,22.10
2018-06-27T18:26:04.728Z,22.10
2018-06-27T18:29:37.985Z,22.00
2018-06-27T18:33:11.227Z,22.00
2018-06-27T18:36:44.510Z,21.90
2018-06-27T18:40:17.858Z,21.80
2018-06-27T18:43:51.071Z,21.80
2018-06-27T18:47:24.335Z,21.80
2018-06-27T18:50:57.597Z,21.70
2018-06-27T18:54:30.812Z,21.70
2018-06-27T18:58:04.104Z,21.60
2018-06-27T19:01:37.339Z,21.60
2018-06-27T19:05:10.585Z,21.70
2018-06-27T19:12:16.813Z,21.70
2018-06-27T19:15:50.089Z,21.70
2018-06-27T19:19:23.327Z,21.70
2018-06-27T19:22:56.556Z,21.60
2018-06-27T19:26:29.792Z,21.60
2018-06-27T19:30:03.024Z,21.50
2018-06-27T19:33:36.322Z,21.40
2018-06-27T19:37:09.487Z,21.30
2018-06-27T19:44:16.118Z,21.20
2018-06-27T19:47:49.714Z,21.10
2018-06-27T19:51:23.017Z,21.10
2018-06-27T19:54:56.196Z,21.00
2018-06-27T19:58:29.437Z,21.00
2018-06-27T20:02:02.709Z,20.90
2018-06-27T20:05:35.952Z,20.90
2018-06-27T20:09:10.037Z,20.80
2018-06-27T20:12:43.320Z,20.70
2018-06-27T20:16:16.553Z,20.70
2018-06-27T20:19:49.806Z,20.60
2018-06-27T20:23:23.336Z,20.50
2018-06-27T20:26:56.616Z,20.50
2018-06-27T20:34:03.724Z,20.30
2018-06-27T20:37:36.976Z,20.30
2018-06-27T20:41:10.221Z,20.20
2018-06-27T20:44:43.452Z,20.20
2018-06-27T20:48:16.716Z,20.20
2018-06-27T20:51:49.957Z,20.10
2018-06-27T20:55:23.314Z,20.00
2018-06-27T20:58:56.679Z,20.00
2018-06-27T21:02:29.920Z,19.90
2018-06-27T21:06:03.147Z,19.90
2018-06-27T21:09:36.400Z,19.80
2018-06-27T21:13:09.649Z,19.70
2018-06-27T21:16:42.905Z,19.60
2018-06-27T21:20:16.195Z,19.60
2018-06-27T21:23:49.388Z,19.50
2018-06-27T21:27:22.634Z,19.50
2018-06-27T21:34:28.842Z,19.30
2018-06-27T21:38:02.073Z,19.30
2018-06-27T21:41:35.311Z,19.30
2018-06-27T21:48:41.723Z,19.20
2018-06-27T21:52:14.971Z,19.20
2018-06-27T21:55:48.203Z,19.10
2018-06-27T21:59:21.457Z,19.00
2018-06-27T22:02:54.836Z,19.00
2018-06-27T22:06:28.092Z,19.00
2018-06-27T22:10:01.314Z,18.90
2018-06-27T22:13:34.551Z,18.90
2018-06-27T22:17:07.788Z,18.80
2018-06-27T22:20:41.033Z,18.80
2018-06-27T22:24:14.257Z,18.70
2018-06-27T22:27:47.512Z,18.70
2018-06-27T22:34:53.753Z,18.60
2018-06-27T22:38:26.994Z,18.60
2018-06-27T22:42:00.228Z,18.50
2018-06-27T22:45:33.452Z,18.50
2018-06-27T22:49:06.692Z,18.50
2018-06-27T22:52:39.932Z,18.40
2018-06-27T22:56:13.179Z,18.40
2018-06-27T22:59:46.423Z,18.40
2018-06-27T23:03:19.664Z,18.30
2018-06-27T23:06:52.928Z,18.30
2018-06-27T23:10:26.173Z,18.20
2018-06-27T23:13:59.409Z,18.20
2018-06-27T23:17:32.648Z,18.20
2018-06-27T23:21:05.905Z,18.20
2018-06-27T23:28:12.137Z,18.20
2018-06-27T23:31:45.387Z,18.20
2018-06-27T23:35:18.628Z,18.20
2018-06-27T23:38:51.856Z,18.10
2018-06-27T23:42:25.101Z,18.10
2018-06-27T23:45:58.333Z,18.00
2018-06-27T23:49:31.624Z,18.00
2018-06-27T23:53:04.992Z,18.00
2018-06-27T23:56:38.260Z,17.90
